createdAt,value
2023-04-20T00:02:25.125Z,75.40
2023-04-20T00:04:55.236Z,96.78
2023-04-20T00:07:26.494Z,74.15
2023-04-20T00:09:56.070Z,83.75
2023-04-20T00:12:25.639Z,77.78
2023-04-20T00:14:55.514Z,67.38
2023-04-20T00:17:25.187Z,76.32
2023-04-20T00:19:55.197Z,70.75
2023-04-20T00:22:24.790Z,72.43
2023-04-20T00:24:54.501Z,70.25
2023-04-20T00:27:24.253Z,75.00
2023-04-20T00:29:53.850Z,76.47
2023-04-20T00:32:23.475Z,73.63
2023-04-20T00:34:53.125Z,75.68
2023-04-20T00:37:22.687Z,73.40
2023-04-20T00:39:52.447Z,74.47
2023-04-20T00:42:22.031Z,71.90
2023-04-20T00:44:52.303Z,82.53
2023-04-20T00:47:22.102Z,74.85
2023-04-20T00:49:52.396Z,72.65
2023-04-20T00:52:23.012Z,76.47
2023-04-20T00:54:52.760Z,74.63
2023-04-20T00:57:26.156Z,72.80
2023-04-20T00:59:55.818Z,73.63
2023-04-20T01:02:25.552Z,79.38
2023-04-20T01:04:55.991Z,71.55
2023-04-20T01:07:25.548Z,73.30
2023-04-20T01:09:55.113Z,74.00
2023-04-20T01:12:25.066Z,77.22
2023-04-20T01:14:54.779Z,69.90
2023-04-20T01:17:25.853Z,62.97
2023-04-20T01:19:55.611Z,68.25
2023-04-20T01:22:25.550Z,79.60
2023-04-20T01:24:55.833Z,81.47
2023-04-20T01:27:25.442Z,74.15
2023-04-20T01:29:55.168Z,64.68
2023-04-20T01:32:24.853Z,70.43
2023-04-20T01:34:54.816Z,67.38
2023-04-20T01:37:24.468Z,71.10
2023-04-20T01:39:54.234Z,71.35
2023-04-20T01:42:24.209Z,68.97
2023-04-20T01:44:53.825Z,71.22
2023-04-20T01:47:23.610Z,70.85
2023-04-20T01:49:53.177Z,68.32
2023-04-20T01:52:22.866Z,67.07
2023-04-20T01:54:52.518Z,68.60
2023-04-20T01:57:22.126Z,70.15
2023-04-20T01:59:52.008Z,67.88
2023-04-20T02:02:21.673Z,71.18
2023-04-20T02:04:51.400Z,67.80
2023-04-20T02:07:21.027Z,68.60
2023-04-20T02:09:50.551Z,61.92
2023-04-20T02:12:20.168Z,63.28
2023-04-20T02:14:49.806Z,68.22
2023-04-20T02:17:19.853Z,66.03
2023-04-20T02:19:49.470Z,66.50
2023-04-20T02:22:19.337Z,62.63
2023-04-20T02:24:49.109Z,67.03
2023-04-20T02:27:18.741Z,66.47
2023-04-20T02:29:48.458Z,62.60
2023-04-20T02:32:18.399Z,61.70
2023-04-20T02:34:48.233Z,60.90
2023-04-20T02:37:17.835Z,70.93
2023-04-20T02:39:47.734Z,81.90
2023-04-20T02:42:17.345Z,77.05
2023-04-20T02:44:46.919Z,67.80
2023-04-20T02:47:16.743Z,66.85
2023-04-20T02:49:46.596Z,68.78
2023-04-20T02:52:16.333Z,71.43
2023-04-20T02:54:45.971Z,67.70
2023-04-20T02:57:15.505Z,68.05
2023-04-20T02:59:45.136Z,59.55
2023-04-20T03:02:14.743Z,64.55
2023-04-20T03:04:44.569Z,64.38
2023-04-20T03:07:16.011Z,69.80
2023-04-20T03:09:46.322Z,63.65
2023-04-20T03:12:16.080Z,66.13
2023-04-20T03:14:45.909Z,63.80
2023-04-20T03:17:15.601Z,64.97
2023-04-20T03:19:45.287Z,60.38
2023-04-20T03:22:14.944Z,64.63
2023-04-20T03:24:44.850Z,61.88
2023-04-20T03:27:14.439Z,62.25
2023-04-20T03:29:43.967Z,66.95
2023-04-20T03:32:13.661Z,69.40
2023-04-20T03:34:43.229Z,66.72
2023-04-20T03:37:12.877Z,62.75
2023-04-20T03:39:42.476Z,66.15
2023-04-20T03:42:12.175Z,73.63
2023-04-20T03:44:41.815Z,59.42
2023-04-20T03:47:12.535Z,63.10
2023-04-20T03:49:42.206Z,63.35
2023-04-20T03:52:12.600Z,59.13
2023-04-20T03:54:42.311Z,69.63
2023-04-20T03:57:11.901Z,62.05
2023-04-20T03:59:41.644Z,61.15
2023-04-20T04:02:12.560Z,61.42
2023-04-20T04:04:42.985Z,67.78
2023-04-20T04:07:12.854Z,70.80
2023-04-20T04:09:42.466Z,64.88
2023-04-20T04:12:12.472Z,65.60
2023-04-20T04:14:42.450Z,66.90
2023-04-20T04:17:12.377Z,63.15
2023-04-20T04:19:42.043Z,61.60
2023-04-20T04:22:11.848Z,65.30
2023-04-20T04:24:43.285Z,68.43
2023-04-20T04:27:15.925Z,62.88
2023-04-20T04:29:46.313Z,59.72
2023-04-20T04:32:16.447Z,64.80
2023-04-20T04:34:46.120Z,63.13
2023-04-20T04:37:16.131Z,58.50
2023-04-20T04:39:45.714Z,58.88
2023-04-20T04:42:15.289Z,54.42
2023-04-20T04:44:45.199Z,66.00
2023-04-20T04:47:15.894Z,59.97
2023-04-20T04:49:45.387Z,61.50
2023-04-20T04:52:15.769Z,55.72
2023-04-20T04:54:45.361Z,62.70
2023-04-20T04:57:16.485Z,71.25
2023-04-20T04:59:46.152Z,62.55
2023-04-20T05:02:15.905Z,63.35
2023-04-20T05:04:45.769Z,55.80
2023-04-20T05:07:19.143Z,56.00
2023-04-20T05:09:48.713Z,62.03
2023-04-20T05:12:18.350Z,63.25
2023-04-20T05:14:47.859Z,61.92
2023-04-20T05:17:17.791Z,59.78
2023-04-20T05:19:47.409Z,59.13
2023-04-20T05:22:17.073Z,55.83
2023-04-20T05:24:46.871Z,61.88
2023-04-20T05:27:16.544Z,60.28
2023-04-20T05:29:46.089Z,56.55
2023-04-20T05:32:15.662Z,59.92
2023-04-20T05:34:45.122Z,62.30
2023-04-20T05:37:15.044Z,64.93
2023-04-20T05:39:44.748Z,57.95
2023-04-20T05:42:14.389Z,63.30
2023-04-20T05:44:45.474Z,57.53
2023-04-20T05:47:15.004Z,56.53
2023-04-20T05:49:44.687Z,54.60
2023-04-20T05:52:14.175Z,54.65
2023-04-20T05:54:43.784Z,53.50
2023-04-20T05:57:13.475Z,56.20
2023-04-20T05:59:43.149Z,60.75
2023-04-20T06:02:12.773Z,62.85
2023-04-20T06:04:44.198Z,60.40
2023-04-20T06:07:14.054Z,56.35
2023-04-20T06:09:44.037Z,58.80
2023-04-20T06:12:13.600Z,56.17
2023-04-20T06:14:43.279Z,60.75
2023-04-20T06:17:12.945Z,55.05
2023-04-20T06:19:42.613Z,59.22
2023-04-20T06:22:12.652Z,55.05
2023-04-20T06:24:43.996Z,59.38
2023-04-20T06:27:14.580Z,65.18
2023-04-20T06:29:44.167Z,58.05
2023-04-20T06:32:13.729Z,66.85
2023-04-20T06:34:43.355Z,58.25
2023-04-20T06:37:12.949Z,55.45
2023-04-20T06:39:42.461Z,54.50
2023-04-20T06:42:11.982Z,54.45
2023-04-20T06:44:42.573Z,61.22
2023-04-20T06:47:12.102Z,59.17
2023-04-20T06:49:41.663Z,59.35
2023-04-20T06:52:11.266Z,53.28
2023-04-20T06:54:40.972Z,51.78
2023-04-20T06:57:10.566Z,63.83
2023-04-20T06:59:40.188Z,54.90
2023-04-20T07:02:10.071Z,55.63
2023-04-20T07:04:39.993Z,63.63
2023-04-20T07:07:09.586Z,59.92
2023-04-20T07:09:39.165Z,58.20
2023-04-20T07:12:08.956Z,51.92
2023-04-20T07:14:38.647Z,63.28
2023-04-20T07:17:09.229Z,60.75
2023-04-20T07:19:39.125Z,57.10
2023-04-20T07:22:09.120Z,64.05
2023-04-20T07:24:38.804Z,71.90
2023-04-20T07:27:10.110Z,66.45
2023-04-20T07:29:39.733Z,59.42
2023-04-20T07:32:09.490Z,56.92
2023-04-20T07:34:40.850Z,69.20
2023-04-20T07:37:10.598Z,57.53
2023-04-20T07:39:40.240Z,58.33
2023-04-20T07:42:09.869Z,62.97
2023-04-20T07:44:39.900Z,62.38
2023-04-20T07:47:09.532Z,71.85
2023-04-20T07:49:42.252Z,67.50
2023-04-20T07:52:16.937Z,65.18
2023-04-20T07:54:48.123Z,65.32
2023-04-20T07:57:18.120Z,65.07
2023-04-20T07:59:48.876Z,61.03
2023-04-20T08:02:19.404Z,62.08
2023-04-20T08:04:50.473Z,64.75
2023-04-20T08:07:20.570Z,61.00
2023-04-20T08:09:50.129Z,66.20
2023-04-20T08:12:19.719Z,59.50
2023-04-20T08:14:49.265Z,67.63
2023-04-20T08:17:18.873Z,66.22
2023-04-20T08:19:48.959Z,77.97
2023-04-20T08:22:18.450Z,96.25
2023-04-20T08:24:48.709Z,94.60
2023-04-20T08:27:18.849Z,164.07
2023-04-20T08:29:48.433Z,189.63
2023-04-20T08:32:20.200Z,118.40
2023-04-20T08:34:49.780Z,135.82
2023-04-20T08:37:19.380Z,72.13
2023-04-20T08:39:49.043Z,67.30
2023-04-20T08:42:18.865Z,71.32
2023-04-20T08:44:48.585Z,101.03
2023-04-20T08:47:18.314Z,100.53
2023-04-20T08:49:49.166Z,142.95
2023-04-20T08:52:18.824Z,103.03
2023-04-20T08:54:56.150Z,68.10
2023-04-20T08:57:27.967Z,91.90
2023-04-20T08:59:58.559Z,76.00
2023-04-20T09:02:28.294Z,65.88
2023-04-20T09:05:10.298Z,66.03
2023-04-20T09:07:40.214Z,60.85
2023-04-20T09:10:10.100Z,69.30
2023-04-20T09:12:44.900Z,71.25
2023-04-20T09:15:28.918Z,74.43
2023-04-20T09:17:59.308Z,59.35
2023-04-20T09:20:36.592Z,61.50
2023-04-20T09:23:25.966Z,63.72
2023-04-20T09:25:55.692Z,63.63
2023-04-20T09:28:25.344Z,58.70
2023-04-20T09:30:55.012Z,63.85
2023-04-20T09:33:31.154Z,55.28
2023-04-20T09:36:07.940Z,59.30
2023-04-20T09:38:37.863Z,56.97
2023-04-20T09:41:08.071Z,55.85
2023-04-20T09:43:38.027Z,54.45
2023-04-20T09:46:09.479Z,58.53
2023-04-20T09:48:39.419Z,52.22
2023-04-20T09:51:09.854Z,61.40
2023-04-20T09:53:40.292Z,59.42
2023-04-20T09:56:10.145Z,55.00
2023-04-20T09:58:41.185Z,56.35
2023-04-20T10:01:13.111Z,51.95
2023-04-20T10:03:47.095Z,59.63
2023-04-20T10:06:28.076Z,58.95
2023-04-20T10:08:58.443Z,52.40
2023-04-20T10:11:51.604Z,53.97
2023-04-20T10:14:27.494Z,53.53
2023-04-20T10:17:16.866Z,54.83
2023-04-20T10:19:48.564Z,52.72
2023-04-20T10:22:34.343Z,53.20
2023-04-20T10:25:17.644Z,51.58
2023-04-20T10:28:04.719Z,50.95
2023-04-20T10:30:35.840Z,53.72
2023-04-20T10:33:15.105Z,53.10
2023-04-20T10:35:53.675Z,66.50
2023-04-20T10:38:33.927Z,58.85
2023-04-20T10:41:14.203Z,59.05
2023-04-20T10:43:47.008Z,59.00
2023-04-20T10:46:24.764Z,59.30
2023-04-20T10:48:59.382Z,55.35
2023-04-20T10:51:29.423Z,53.40
2023-04-20T10:54:09.264Z,51.20
2023-04-20T10:56:43.678Z,54.95
2023-04-20T10:59:18.705Z,51.80
2023-04-20T11:01:49.791Z,47.63
2023-04-20T11:04:20.235Z,50.47
2023-04-20T11:06:50.378Z,51.35
2023-04-20T11:09:28.268Z,54.08
2023-04-20T11:14:37.229Z,49.90
2023-04-20T11:17:07.306Z,58.70
2023-04-20T11:19:39.074Z,53.28
2023-04-20T11:22:08.751Z,47.53
2023-04-20T11:24:39.838Z,59.10
2023-04-20T11:27:09.465Z,56.25
2023-04-20T11:29:41.268Z,57.05
2023-04-20T11:32:12.500Z,48.08
2023-04-20T11:34:43.484Z,54.20
2023-04-20T11:37:17.419Z,36.97
2023-04-20T11:39:47.027Z,45.53
2023-04-20T11:42:16.588Z,36.50
2023-04-20T11:44:46.152Z,39.60
2023-04-20T11:47:16.807Z,42.13
2023-04-20T11:49:46.431Z,37.17
2023-04-20T11:52:16.025Z,42.92
2023-04-20T11:54:46.398Z,44.38
2023-04-20T11:57:16.001Z,40.08
2023-04-20T11:59:49.668Z,45.75
2023-04-20T12:02:19.568Z,47.25
2023-04-20T12:04:49.376Z,43.88
2023-04-20T12:07:19.026Z,45.85
2023-04-20T12:09:48.601Z,39.42
2023-04-20T12:12:18.213Z,42.72
2023-04-20T12:14:47.847Z,36.78
2023-04-20T12:17:17.632Z,41.03
2023-04-20T12:19:47.424Z,38.25
2023-04-20T12:22:17.007Z,40.28
2023-04-20T12:24:47.303Z,44.40
2023-04-20T12:27:17.142Z,40.13
2023-04-20T12:29:46.740Z,51.05
2023-04-20T12:32:16.366Z,39.90
2023-04-20T12:34:45.992Z,47.92
2023-04-20T12:37:16.509Z,44.70
2023-04-20T12:39:46.153Z,41.85
2023-04-20T12:42:15.841Z,48.88
2023-04-20T12:44:45.476Z,45.42
2023-04-20T12:47:15.369Z,54.78
2023-04-20T12:49:44.855Z,49.88
2023-04-20T12:52:14.624Z,48.10
2023-04-20T12:54:44.557Z,42.83
2023-04-20T12:57:14.789Z,51.30
2023-04-20T12:59:44.652Z,49.25
2023-04-20T13:02:14.570Z,47.83
2023-04-20T13:04:44.207Z,42.75
2023-04-20T13:07:13.918Z,46.63
2023-04-20T13:09:43.462Z,46.17
2023-04-20T13:12:15.074Z,47.25
2023-04-20T13:14:44.720Z,45.10
2023-04-20T13:17:15.509Z,47.08
2023-04-20T13:19:45.494Z,39.65
2023-04-20T13:22:18.079Z,48.45
2023-04-20T13:24:48.876Z,47.40
2023-04-20T13:27:18.429Z,47.92
2023-04-20T13:29:48.026Z,44.53
2023-04-20T13:32:17.610Z,46.92
2023-04-20T13:34:47.825Z,42.53
2023-04-20T13:37:17.370Z,48.97
2023-04-20T13:39:47.016Z,43.15
2023-04-20T13:42:16.584Z,49.95
2023-04-20T13:44:46.183Z,48.50
2023-04-20T13:47:16.634Z,45.53
2023-04-20T13:49:46.307Z,47.08
2023-04-20T13:52:15.953Z,47.35
2023-04-20T13:54:45.506Z,48.65
2023-04-20T13:57:15.076Z,44.95
2023-04-20T13:59:44.762Z,51.38
2023-04-20T14:02:14.286Z,46.70
2023-04-20T14:04:43.972Z,50.85
2023-04-20T14:07:13.695Z,40.63
2023-04-20T14:09:45.746Z,43.33
2023-04-20T14:12:16.454Z,50.08
2023-04-20T14:14:45.968Z,47.03
2023-04-20T14:17:18.425Z,48.80
2023-04-20T14:19:48.028Z,55.90
2023-04-20T14:22:18.018Z,59.10
2023-04-20T14:24:48.303Z,64.10
2023-04-20T14:27:17.886Z,68.10
2023-04-20T14:29:47.489Z,64.65
2023-04-20T14:32:17.070Z,68.40
2023-04-20T14:34:46.824Z,61.50
2023-04-20T14:37:16.545Z,65.72
2023-04-20T14:39:46.111Z,59.05
2023-04-20T14:42:15.914Z,59.75
2023-04-20T14:44:45.567Z,57.22
2023-04-20T14:47:15.129Z,57.30
2023-04-20T14:49:46.343Z,58.85
2023-04-20T14:52:20.190Z,59.78
2023-04-20T14:54:49.854Z,57.65
2023-04-20T14:57:19.460Z,60.35
2023-04-20T14:59:49.031Z,61.05
2023-04-20T15:02:20.006Z,58.28
2023-04-20T15:04:50.353Z,63.72
2023-04-20T15:07:20.430Z,56.17
2023-04-20T15:09:50.031Z,61.67
2023-04-20T15:12:19.532Z,63.70
2023-04-20T15:14:49.056Z,55.63
2023-04-20T15:17:18.614Z,56.35
2023-04-20T15:19:48.148Z,58.85
2023-04-20T15:22:17.872Z,60.25
2023-04-20T15:24:47.429Z,58.78
2023-04-20T15:27:18.711Z,59.30
2023-04-20T15:29:48.244Z,63.10
2023-04-20T15:32:17.934Z,67.15
2023-04-20T15:34:47.496Z,57.95
2023-04-20T15:37:17.081Z,59.70
2023-04-20T15:39:46.759Z,61.58
2023-04-20T15:42:16.298Z,64.03
2023-04-20T15:44:45.978Z,61.58
2023-04-20T15:47:15.680Z,57.70
2023-04-20T15:49:45.281Z,54.10
2023-04-20T15:52:14.896Z,58.08
2023-04-20T15:54:45.429Z,57.55
2023-04-20T15:57:15.242Z,57.75
2023-04-20T15:59:45.313Z,64.57
2023-04-20T16:02:15.136Z,51.70
2023-04-20T16:04:45.391Z,49.50
2023-04-20T16:07:16.368Z,52.50
2023-04-20T16:09:45.993Z,53.63
2023-04-20T16:12:15.624Z,53.47
2023-04-20T16:14:45.245Z,48.95
2023-04-20T16:17:15.132Z,52.92
2023-04-20T16:19:44.863Z,52.97
2023-04-20T16:22:15.749Z,51.25
2023-04-20T16:24:45.416Z,51.17
2023-04-20T16:27:15.072Z,46.42
2023-04-20T16:29:44.718Z,51.47
2023-04-20T16:32:14.707Z,65.40
2023-04-20T16:34:44.314Z,54.30
2023-04-20T16:37:14.004Z,54.97
2023-04-20T16:39:43.853Z,56.72
2023-04-20T16:42:13.517Z,56.35
2023-04-20T16:44:43.174Z,60.55
2023-04-20T16:47:12.775Z,55.08
2023-04-20T16:49:42.508Z,56.67
2023-04-20T16:52:12.180Z,53.22
2023-04-20T16:54:43.381Z,51.03
2023-04-20T16:57:13.395Z,53.65
2023-04-20T16:59:44.711Z,51.47
2023-04-20T17:02:15.571Z,49.53
2023-04-20T17:04:45.260Z,49.08
2023-04-20T17:07:15.437Z,51.88
2023-04-20T17:09:45.038Z,54.42
2023-04-20T17:12:14.632Z,46.13
2023-04-20T17:14:45.035Z,55.75
2023-04-20T17:17:14.610Z,52.25
2023-04-20T17:19:44.251Z,57.53
2023-04-20T17:22:13.816Z,58.08
2023-04-20T17:24:43.399Z,52.38
2023-04-20T17:27:12.933Z,52.15
2023-04-20T17:29:44.704Z,53.78
2023-04-20T17:32:14.562Z,53.15
2023-04-20T17:34:50.338Z,50.22
2023-04-20T17:37:24.619Z,47.15
2023-04-20T17:39:54.195Z,56.92
2023-04-20T17:42:23.717Z,48.65
2023-04-20T17:44:53.901Z,54.15
2023-04-20T17:47:23.466Z,52.45
2023-04-20T17:49:53.738Z,47.50
2023-04-20T17:52:23.896Z,54.35
2023-04-20T17:54:54.392Z,52.55
2023-04-20T17:57:24.101Z,57.22
2023-04-20T17:59:53.643Z,62.10
2023-04-20T18:02:25.423Z,51.22
2023-04-20T18:04:56.924Z,57.15
2023-04-20T18:07:26.794Z,55.03
2023-04-20T18:09:56.460Z,57.67
2023-04-20T18:12:26.176Z,55.35
2023-04-20T18:14:55.731Z,51.17
2023-04-20T18:17:25.329Z,53.60
2023-04-20T18:19:54.950Z,56.55
2023-04-20T18:22:25.818Z,55.40
2023-04-20T18:24:55.879Z,53.38
2023-04-20T18:27:25.506Z,53.35
2023-04-20T18:29:55.296Z,51.13
2023-04-20T18:32:24.830Z,51.60
2023-04-20T18:34:54.726Z,57.63
2023-04-20T18:37:24.272Z,51.40
2023-04-20T18:39:53.845Z,54.33
2023-04-20T18:42:23.676Z,57.50
2023-04-20T18:44:55.186Z,57.35
2023-04-20T18:47:27.081Z,51.30
2023-04-20T18:49:56.652Z,52.28
2023-04-20T18:52:26.233Z,45.15
2023-04-20T18:54:57.091Z,55.60
2023-04-20T18:57:30.068Z,51.95
2023-04-20T18:59:59.677Z,48.63
2023-04-20T19:02:29.518Z,55.42
2023-04-20T19:04:59.326Z,52.05
2023-04-20T19:07:29.049Z,50.92
2023-04-20T19:09:58.721Z,56.17
2023-04-20T19:12:29.418Z,54.67
2023-04-20T19:14:59.061Z,58.28
2023-04-20T19:17:28.736Z,50.88
2023-04-20T19:19:59.066Z,49.58
2023-04-20T19:22:28.633Z,44.45
2023-04-20T19:24:58.239Z,52.08
2023-04-20T19:27:28.489Z,54.92
2023-04-20T19:29:58.003Z,46.70
2023-04-20T19:32:27.722Z,48.70
2023-04-20T19:34:59.379Z,49.67
2023-04-20T19:37:29.498Z,50.85
2023-04-20T19:39:59.111Z,45.15
2023-04-20T19:42:28.699Z,46.10
2023-04-20T19:44:59.708Z,45.50
2023-04-20T19:47:29.319Z,48.45
2023-04-20T19:49:59.807Z,48.00
2023-04-20T19:52:30.121Z,46.47
2023-04-20T19:54:59.740Z,46.10
2023-04-20T19:57:29.399Z,49.85
2023-04-20T19:59:59.108Z,58.17
2023-04-20T20:02:28.837Z,56.05
2023-04-20T20:04:58.499Z,51.50
2023-04-20T20:07:28.163Z,54.22
2023-04-20T20:09:57.809Z,55.72
2023-04-20T20:12:27.664Z,51.88
2023-04-20T20:14:57.224Z,55.10
2023-04-20T20:17:26.985Z,53.25
2023-04-20T20:19:57.157Z,55.63
2023-04-20T20:22:26.912Z,48.75
2023-04-20T20:24:56.531Z,49.05
2023-04-20T20:27:26.056Z,51.25
2023-04-20T20:29:55.629Z,55.00
2023-04-20T20:32:26.433Z,56.45
2023-04-20T20:34:56.084Z,49.92
2023-04-20T20:37:25.982Z,48.40
2023-04-20T20:39:55.611Z,45.78
2023-04-20T20:42:25.166Z,57.90
2023-04-20T20:44:54.653Z,50.08
2023-04-20T20:47:25.894Z,55.28
2023-04-20T20:49:55.505Z,48.05
2023-04-20T20:52:25.149Z,46.70
2023-04-20T20:54:54.662Z,47.90
2023-04-20T20:57:24.428Z,57.97
2023-04-20T20:59:54.016Z,52.97
2023-04-20T21:02:23.901Z,51.88
2023-04-20T21:04:53.632Z,48.85
2023-04-20T21:07:23.168Z,59.50
2023-04-20T21:09:52.673Z,51.67
2023-04-20T21:12:22.317Z,48.92
2023-04-20T21:14:53.894Z,53.30
2023-04-20T21:17:23.604Z,53.58
2023-04-20T21:19:53.183Z,54.85
2023-04-20T21:22:24.078Z,56.78
2023-04-20T21:24:53.674Z,49.78
2023-04-20T21:27:23.259Z,58.97
2023-04-20T21:29:52.798Z,47.38
2023-04-20T21:32:22.759Z,61.28
2023-04-20T21:34:53.302Z,51.47
2023-04-20T21:37:22.938Z,56.55
2023-04-20T21:39:53.009Z,50.42
2023-04-20T21:42:22.770Z,54.75
2023-04-20T21:44:52.310Z,51.97
2023-04-20T21:47:21.937Z,53.63
2023-04-20T21:49:51.469Z,48.08
2023-04-20T21:52:21.158Z,53.47
2023-04-20T21:54:50.782Z,57.53
2023-04-20T21:57:20.686Z,58.78
2023-04-20T21:59:50.352Z,57.75
2023-04-20T22:02:19.973Z,55.50
2023-04-20T22:04:50.619Z,53.50
2023-04-20T22:07:20.323Z,58.25
2023-04-20T22:09:49.843Z,60.67
2023-04-20T22:12:32.283Z,56.15
2023-04-20T22:15:10.973Z,62.47
2023-04-20T22:17:40.698Z,56.25
2023-04-20T22:20:12.519Z,55.33
2023-04-20T22:22:42.807Z,60.50
2023-04-20T22:25:12.673Z,58.53
2023-04-20T22:27:42.358Z,65.13
2023-04-20T22:30:12.403Z,59.47
2023-04-20T22:32:42.610Z,57.80
2023-04-20T22:35:12.374Z,56.15
2023-04-20T22:37:42.518Z,55.45
2023-04-20T22:40:13.925Z,63.13
2023-04-20T22:42:43.552Z,60.88
2023-04-20T22:45:13.565Z,62.85
2023-04-20T22:47:43.363Z,70.15
2023-04-20T22:50:13.836Z,57.05
2023-04-20T22:52:43.482Z,54.95
2023-04-20T22:55:13.632Z,56.15
2023-04-20T22:57:43.358Z,56.95
2023-04-20T23:00:15.284Z,60.30
2023-04-20T23:02:44.975Z,55.55
2023-04-20T23:05:14.689Z,63.58
2023-04-20T23:07:46.877Z,57.42
2023-04-20T23:10:20.565Z,59.50
2023-04-20T23:12:51.365Z,57.33
2023-04-20T23:15:20.927Z,63.88
2023-04-20T23:17:50.572Z,57.35
2023-04-20T23:20:20.210Z,59.58
2023-04-20T23:22:49.888Z,58.35
2023-04-20T23:25:19.589Z,60.28
2023-04-20T23:27:49.184Z,59.88
2023-04-20T23:30:18.880Z,63.80
2023-04-20T23:32:48.448Z,62.05
2023-04-20T23:35:18.026Z,59.45
2023-04-20T23:37:47.584Z,59.90
2023-04-20T23:40:17.371Z,68.22
2023-04-20T23:42:47.006Z,81.03
2023-04-20T23:45:16.629Z,67.35
2023-04-20T23:47:46.269Z,68.18
2023-04-20T23:50:16.065Z,66.00
2023-04-20T23:52:45.539Z,56.45
2023-04-20T23:55:15.915Z,60.60
2023-04-20T23:57:45.613Z,69.63
